This is the latest recevied weather packets stored in our database for station/object EA1EXV-11. If no packets are shown the sender has not sent any weather packets the latest 1 day(s).
| Time | Temp. | Humidity | Pressure | Rain* | Wind** | Luminosity | Snow |
|---|---|---|---|---|---|---|---|
| 1788624840 | 40.56° C | 28% | 1017.6 hPa | - | - | - | - |
| 1788623940 | 42.22° C | 26% | 1017.7 hPa | - | - | - | - |
| 1788623039 | 43.33° C | 25% | 1017.8 hPa | - | - | - | - |
| 1788622139 | 41.11° C | 26% | 1018 hPa | - | - | - | - |
| 1788621239 | 42.22° C | 25% | 1017.8 hPa | - | - | - | - |
| 1788620339 | 43.33° C | 24% | 1017.9 hPa | - | - | - | - |
| 1788619439 | 44.44° C | 24% | 1018 hPa | - | - | - | - |
| 1788618539 | 43.33° C | 26% | 1018.2 hPa | - | - | - | - |
| 1788617639 | 43.89° C | 25% | 1018.4 hPa | - | - | - | - |
| 1788616739 | 42.78° C | 27% | 1018.7 hPa | - | - | - | - |
| 1788615839 | 42.22° C | 29% | 1018.7 hPa | - | - | - | - |
| 1788614938 | 42.78° C | 29% | 1018.8 hPa | - | - | - | - |
| 1788614038 | 42.22° C | 30% | 1019 hPa | - | - | - | - |
| 1788613138 | 42.22° C | 30% | 1019.2 hPa | - | - | - | - |
| 1788612238 | 41.11° C | 32% | 1019.4 hPa | - | - | - | - |
| 1788611338 | 41.67° C | 32% | 1019.5 hPa | - | - | - | - |
| 1788610438 | 40° C | 34% | 1019.6 hPa | - | - | - | - |
| 1788609538 | 38.89° C | 36% | 1019.8 hPa | - | - | - | - |
| 1788608640 | 37.78° C | 38% | 1019.8 hPa | - | - | - | - |
| 1788607738 | 37.22° C | 40% | 1020 hPa | - | - | - | - |
| 1788606838 | 36.67° C | 41% | 1020 hPa | - | - | - | - |
| 1788605937 | 35.56° C | 43% | 1020.3 hPa | - | - | - | - |
| 1788605037 | 34.44° C | 45% | 1020.3 hPa | - | - | - | - |
| 1788604137 | 32.78° C | 48% | 1020.4 hPa | - | - | - | - |
| 1788603237 | 32.78° C | 50% | 1020.5 hPa | - | - | - | - |
* Rain since midnight (hover to see other rain measurements)
** Current wind speed in m/s (hover to see current wind gust speed)